createdAt,value
2018-12-17T00:01:10.011Z,8.67
2018-12-17T00:03:37.508Z,8.80
2018-12-17T00:06:05.297Z,9.77
2018-12-17T00:08:32.782Z,9.77
2018-12-17T00:11:00.509Z,9.53
2018-12-17T00:13:28.011Z,9.63
2018-12-17T00:15:55.557Z,9.70
2018-12-17T00:18:23.062Z,8.53
2018-12-17T00:20:50.588Z,9.30
2018-12-17T00:23:18.082Z,8.23
2018-12-17T00:25:45.563Z,9.37
2018-12-17T00:28:13.087Z,9.97
2018-12-17T00:30:40.666Z,9.13
2018-12-17T00:33:08.189Z,8.90
2018-12-17T00:35:35.713Z,9.43
2018-12-17T00:38:03.208Z,9.00
2018-12-17T00:40:31.159Z,8.97
2018-12-17T00:42:58.679Z,9.00
2018-12-17T00:45:26.183Z,9.80
2018-12-17T00:47:53.665Z,9.50
2018-12-17T00:50:21.172Z,9.53
2018-12-17T00:52:48.656Z,9.20
2018-12-17T00:55:16.212Z,9.20
2018-12-17T00:57:43.699Z,9.70
2018-12-17T01:00:11.308Z,9.60
2018-12-17T01:02:38.943Z,9.47
2018-12-17T01:05:06.568Z,10.10
2018-12-17T01:07:34.051Z,9.47
2018-12-17T01:10:02.651Z,9.03
2018-12-17T01:12:30.140Z,9.43
2018-12-17T01:14:57.634Z,10.70
2018-12-17T01:17:25.191Z,10.60
2018-12-17T01:19:52.682Z,10.67
2018-12-17T01:22:20.215Z,10.33
2018-12-17T01:24:47.732Z,10.17
2018-12-17T01:27:15.223Z,10.37
2018-12-17T01:29:42.712Z,11.40
2018-12-17T01:32:10.256Z,11.43
2018-12-17T01:34:37.746Z,11.70
2018-12-17T01:37:05.250Z,10.13
2018-12-17T01:39:32.835Z,10.90
2018-12-17T01:42:00.369Z,10.10
2018-12-17T01:44:27.851Z,10.70
2018-12-17T01:46:55.456Z,9.60
2018-12-17T01:49:22.949Z,8.77
2018-12-17T01:51:50.439Z,8.87
2018-12-17T01:54:18.030Z,9.30
2018-12-17T01:56:45.580Z,8.63
2018-12-17T01:59:13.087Z,8.27
2018-12-17T02:01:40.763Z,7.33
2018-12-17T02:04:08.258Z,8.10
2018-12-17T02:06:35.746Z,8.30
2018-12-17T02:09:05.811Z,8.50
2018-12-17T02:11:33.368Z,7.83
2018-12-17T02:14:00.856Z,7.63
2018-12-17T02:16:28.371Z,7.77
2018-12-17T02:18:55.856Z,7.30
2018-12-17T02:21:23.369Z,5.77
2018-12-17T02:23:51.016Z,7.23
2018-12-17T02:26:19.067Z,7.20
2018-12-17T02:28:46.624Z,7.60
2018-12-17T02:31:14.160Z,7.20
2018-12-17T02:33:41.681Z,7.67
2018-12-17T02:36:09.387Z,7.67
2018-12-17T02:38:36.917Z,7.70
2018-12-17T02:41:04.546Z,7.80
2018-12-17T02:43:32.030Z,7.53
2018-12-17T02:45:59.527Z,7.50
2018-12-17T02:48:27.701Z,7.80
2018-12-17T02:50:55.197Z,7.40
2018-12-17T02:53:22.684Z,7.67
2018-12-17T02:55:50.276Z,7.53
2018-12-17T02:58:17.797Z,7.93
2018-12-17T03:00:45.291Z,7.10
2018-12-17T03:03:12.803Z,7.87
2018-12-17T03:05:40.390Z,7.70
2018-12-17T03:08:07.863Z,7.77
2018-12-17T03:10:35.381Z,7.33
2018-12-17T03:13:03.048Z,7.40
2018-12-17T03:15:30.705Z,7.57
2018-12-17T03:17:58.211Z,6.60
2018-12-17T03:20:25.736Z,7.50
2018-12-17T03:22:53.221Z,7.13
2018-12-17T03:25:20.700Z,6.97
2018-12-17T03:27:48.218Z,7.33
2018-12-17T03:30:15.709Z,7.17
2018-12-17T03:32:44.017Z,7.03
2018-12-17T03:35:11.856Z,7.40
2018-12-17T03:37:39.343Z,6.83
2018-12-17T03:40:06.959Z,7.20
2018-12-17T03:42:34.475Z,7.30
2018-12-17T03:45:01.988Z,7.40
2018-12-17T03:47:29.488Z,6.93
2018-12-17T03:49:57.002Z,7.50
2018-12-17T03:52:24.511Z,7.77
2018-12-17T03:54:51.979Z,6.60
2018-12-17T03:57:19.493Z,6.57
2018-12-17T03:59:47.078Z,7.33
2018-12-17T04:02:14.556Z,6.80
2018-12-17T04:04:42.603Z,6.30
2018-12-17T04:07:10.157Z,6.60
2018-12-17T04:09:37.663Z,6.50
2018-12-17T04:12:05.260Z,6.60
2018-12-17T04:14:32.783Z,5.73
2018-12-17T04:17:01.508Z,5.40
2018-12-17T04:19:29.051Z,5.77
2018-12-17T04:21:56.531Z,5.47
2018-12-17T04:24:24.017Z,5.40
2018-12-17T04:26:51.555Z,5.80
2018-12-17T04:29:19.051Z,5.77
2018-12-17T04:31:46.535Z,5.57
2018-12-17T04:34:14.056Z,5.63
2018-12-17T04:36:41.581Z,5.33
2018-12-17T04:39:09.106Z,5.43
2018-12-17T04:41:36.641Z,4.97
2018-12-17T04:44:04.128Z,5.07
2018-12-17T04:46:32.769Z,5.30
2018-12-17T04:49:00.367Z,5.83
2018-12-17T04:51:28.027Z,4.90
2018-12-17T04:53:56.739Z,5.00
2018-12-17T04:56:24.490Z,4.53
2018-12-17T04:58:51.987Z,5.30
2018-12-17T05:01:19.550Z,5.20
2018-12-17T05:03:47.129Z,4.60
2018-12-17T05:06:15.353Z,4.80
2018-12-17T05:08:42.848Z,5.00
2018-12-17T05:11:10.362Z,4.40
2018-12-17T05:13:37.916Z,4.80
2018-12-17T05:16:05.408Z,4.33
2018-12-17T05:18:33.024Z,4.63
2018-12-17T05:21:00.559Z,4.40
2018-12-17T05:23:28.145Z,4.47
2018-12-17T05:25:55.677Z,4.50
2018-12-17T05:28:23.174Z,3.77
2018-12-17T05:30:50.703Z,4.53
2018-12-17T05:33:18.379Z,4.00
2018-12-17T05:35:46.081Z,4.43
2018-12-17T05:38:13.623Z,4.77
2018-12-17T05:40:42.232Z,5.80
2018-12-17T05:43:10.611Z,4.30
2018-12-17T05:45:40.018Z,4.30
2018-12-17T05:48:07.559Z,4.77
2018-12-17T05:50:35.284Z,5.70
2018-12-17T05:53:02.768Z,4.50
2018-12-17T05:55:30.445Z,4.37
2018-12-17T05:57:58.207Z,4.40
2018-12-17T06:00:25.873Z,4.13
2018-12-17T06:02:53.383Z,4.33
2018-12-17T06:05:20.888Z,4.33
2018-12-17T06:07:48.722Z,4.60
2018-12-17T06:10:17.396Z,5.03
2018-12-17T06:12:44.986Z,4.63
2018-12-17T06:15:12.644Z,4.40
2018-12-17T06:17:40.817Z,5.03
2018-12-17T06:20:08.566Z,4.87
2018-12-17T06:22:36.072Z,4.90
2018-12-17T06:25:03.813Z,4.87
2018-12-17T06:27:36.818Z,4.77
2018-12-17T06:30:00.945Z,5.40
2018-12-17T06:32:28.472Z,4.70
2018-12-17T06:34:56.454Z,4.87
2018-12-17T06:37:23.979Z,5.30
2018-12-17T06:39:51.480Z,5.87
2018-12-17T06:42:19.826Z,5.73
2018-12-17T06:44:47.315Z,5.67
2018-12-17T06:47:14.812Z,6.40
2018-12-17T06:49:42.371Z,6.03
2018-12-17T06:52:09.856Z,6.13
2018-12-17T06:54:37.514Z,6.20
2018-12-17T06:57:05.112Z,5.40
2018-12-17T06:59:32.683Z,6.00
2018-12-17T07:02:00.345Z,5.50
2018-12-17T07:04:27.923Z,6.80
2018-12-17T07:06:55.439Z,5.87
2018-12-17T07:09:23.034Z,5.83
2018-12-17T07:11:50.640Z,5.87
2018-12-17T07:14:18.211Z,6.67
2018-12-17T07:16:45.727Z,7.30
2018-12-17T07:19:13.364Z,6.90
2018-12-17T07:21:41.767Z,7.30
2018-12-17T07:24:09.288Z,7.07
2018-12-17T07:26:37.162Z,7.73
2018-12-17T07:29:04.669Z,7.70
2018-12-17T07:31:32.407Z,7.17
2018-12-17T07:34:00.004Z,7.03
2018-12-17T07:36:27.513Z,6.50
2018-12-17T07:38:54.991Z,6.37
2018-12-17T07:41:22.540Z,7.33
2018-12-17T07:43:50.021Z,7.03
2018-12-17T07:46:17.548Z,8.37
2018-12-17T07:48:45.085Z,7.17
2018-12-17T07:51:12.639Z,7.50
2018-12-17T07:53:40.163Z,6.10
2018-12-17T07:56:07.656Z,6.70
2018-12-17T07:58:35.197Z,7.40
2018-12-17T08:01:04.342Z,8.70
2018-12-17T08:03:31.848Z,8.20
2018-12-17T08:05:59.382Z,8.10
2018-12-17T08:08:26.960Z,8.93
2018-12-17T08:10:54.463Z,9.50
2018-12-17T08:13:22.948Z,10.60
2018-12-17T08:15:50.456Z,10.30
2018-12-17T08:18:21.430Z,10.00
2018-12-17T08:20:50.087Z,7.90
2018-12-17T08:23:17.702Z,11.40
2018-12-17T08:25:45.284Z,11.33
2018-12-17T08:28:12.803Z,10.00
2018-12-17T08:30:40.292Z,11.20
2018-12-17T08:33:07.782Z,12.30
2018-12-17T08:35:35.353Z,10.70
2018-12-17T08:38:02.912Z,12.53
2018-12-17T08:40:30.452Z,10.57
2018-12-17T08:42:57.986Z,12.63
2018-12-17T08:45:25.474Z,11.80
2018-12-17T08:47:52.960Z,13.33
2018-12-17T08:50:20.484Z,12.03
2018-12-17T08:52:47.975Z,12.23
2018-12-17T08:55:15.563Z,9.53
2018-12-17T08:57:43.075Z,12.20
2018-12-17T09:00:11.391Z,12.10
2018-12-17T09:02:39.213Z,13.37
2018-12-17T09:05:06.898Z,12.17
2018-12-17T09:07:34.411Z,12.77
2018-12-17T09:10:01.916Z,10.23
2018-12-17T09:12:29.433Z,12.57
2018-12-17T09:14:56.926Z,11.73
2018-12-17T09:17:24.418Z,10.07
2018-12-17T09:19:51.934Z,11.87
2018-12-17T09:22:19.463Z,10.93
2018-12-17T09:24:46.954Z,9.60
2018-12-17T09:27:14.536Z,11.20
2018-12-17T09:29:42.059Z,10.03
2018-12-17T09:32:09.602Z,10.03
2018-12-17T09:34:37.188Z,10.13
2018-12-17T09:37:04.684Z,8.03
2018-12-17T09:39:32.251Z,6.43
2018-12-17T09:41:59.767Z,7.43
2018-12-17T09:44:28.020Z,8.53
2018-12-17T09:46:55.507Z,8.40
2018-12-17T09:49:23.194Z,8.87
2018-12-17T09:51:50.679Z,6.47
2018-12-17T09:54:18.680Z,7.67
2018-12-17T09:56:46.241Z,7.67
2018-12-17T09:59:13.729Z,8.50
2018-12-17T10:01:41.221Z,7.90
2018-12-17T10:04:09.151Z,7.53
2018-12-17T10:06:36.650Z,6.63
2018-12-17T10:09:05.858Z,5.73
2018-12-17T10:11:33.411Z,6.80
2018-12-17T10:14:00.910Z,6.70
2018-12-17T10:16:28.494Z,6.73
2018-12-17T10:18:56.114Z,5.30
2018-12-17T10:21:23.602Z,5.80
2018-12-17T10:23:51.141Z,5.33
2018-12-17T10:26:18.740Z,6.27
2018-12-17T10:28:47.051Z,5.33
2018-12-17T10:31:14.556Z,4.80
2018-12-17T10:33:42.164Z,4.75
2018-12-17T10:36:10.451Z,4.40
2018-12-17T10:38:38.054Z,3.20
2018-12-17T10:41:05.561Z,4.17
2018-12-17T10:43:33.045Z,3.97
2018-12-17T10:46:00.535Z,3.80
2018-12-17T10:48:28.101Z,3.80
2018-12-17T10:50:55.659Z,4.00
2018-12-17T10:53:23.143Z,3.67
2018-12-17T10:55:50.657Z,3.50
2018-12-17T10:58:18.136Z,3.53
2018-12-17T11:00:51.366Z,4.00
2018-12-17T11:03:20.859Z,3.80
2018-12-17T11:05:48.348Z,3.90
2018-12-17T11:08:15.845Z,3.97
2018-12-17T11:10:43.332Z,4.17
2018-12-17T11:13:10.891Z,3.60
2018-12-17T11:15:38.399Z,3.57
2018-12-17T11:18:05.998Z,4.23
2018-12-17T11:20:33.646Z,3.30
2018-12-17T11:23:01.206Z,3.77
2018-12-17T11:25:28.709Z,3.27
2018-12-17T11:27:56.389Z,3.40
2018-12-17T11:30:23.888Z,3.47
2018-12-17T11:32:51.359Z,3.10
2018-12-17T11:35:18.840Z,3.33
2018-12-17T11:37:46.502Z,2.93
2018-12-17T11:40:14.002Z,3.30
2018-12-17T11:42:42.565Z,3.20
2018-12-17T11:45:10.072Z,3.33
2018-12-17T11:47:37.594Z,3.37
2018-12-17T11:50:06.138Z,2.93
2018-12-17T11:52:33.723Z,3.73
2018-12-17T11:55:01.278Z,3.10
2018-12-17T11:57:37.690Z,4.03
2018-12-17T12:00:07.680Z,3.53
2018-12-17T12:02:35.250Z,3.43
2018-12-17T12:05:02.959Z,3.33
2018-12-17T12:07:30.438Z,2.97
2018-12-17T12:09:57.914Z,3.37
2018-12-17T12:12:25.430Z,3.53
2018-12-17T12:14:52.933Z,3.00
2018-12-17T12:17:20.419Z,3.40
2018-12-17T12:19:47.928Z,4.30
2018-12-17T12:22:15.519Z,3.50
2018-12-17T12:24:43.019Z,3.40
2018-12-17T12:27:10.522Z,3.80
2018-12-17T12:29:38.003Z,3.47
2018-12-17T12:32:05.482Z,3.47
2018-12-17T12:34:33.012Z,2.73
2018-12-17T12:37:00.514Z,3.03
2018-12-17T12:39:28.038Z,2.90
2018-12-17T12:41:55.550Z,3.63
2018-12-17T12:44:23.050Z,3.23
2018-12-17T12:46:50.570Z,3.37
2018-12-17T12:49:18.072Z,3.33
2018-12-17T12:51:45.544Z,3.70
2018-12-17T12:54:13.023Z,3.77
2018-12-17T12:56:40.568Z,3.57
2018-12-17T12:59:08.070Z,4.10
2018-12-17T13:01:35.713Z,4.10
2018-12-17T13:04:03.264Z,4.50
2018-12-17T13:06:30.768Z,4.67
2018-12-17T13:08:58.276Z,4.37
2018-12-17T13:11:25.770Z,4.10
2018-12-17T13:13:53.276Z,4.20
2018-12-17T13:16:20.927Z,4.73
2018-12-17T13:18:48.407Z,4.87
2018-12-17T13:21:15.884Z,4.27
2018-12-17T13:23:43.407Z,4.37
2018-12-17T13:26:10.903Z,4.27
2018-12-17T13:28:39.476Z,4.00
2018-12-17T13:31:14.378Z,4.80
2018-12-17T13:33:36.907Z,4.00
2018-12-17T13:36:04.392Z,4.37
2018-12-17T13:38:31.935Z,4.43
2018-12-17T13:40:59.419Z,4.50
2018-12-17T13:43:26.919Z,4.50
2018-12-17T13:45:54.516Z,4.57
2018-12-17T13:48:21.997Z,4.70
2018-12-17T13:50:51.053Z,5.17
2018-12-17T13:53:24.151Z,4.17
2018-12-17T13:55:51.678Z,4.83
2018-12-17T13:58:19.245Z,5.03
2018-12-17T14:00:46.743Z,4.57
2018-12-17T14:03:14.298Z,4.87
2018-12-17T14:05:41.899Z,5.00
2018-12-17T14:08:09.419Z,5.47
2018-12-17T14:10:42.598Z,5.67
2018-12-17T14:13:10.175Z,5.30
2018-12-17T14:15:43.402Z,5.67
2018-12-17T14:18:16.641Z,5.00
2018-12-17T14:20:49.762Z,6.07
2018-12-17T14:23:17.404Z,6.30
2018-12-17T14:25:44.881Z,6.10
2018-12-17T14:28:12.371Z,6.67
2018-12-17T14:30:40.034Z,6.93
2018-12-17T14:33:07.517Z,6.30
2018-12-17T14:35:35.036Z,6.37
2018-12-17T14:38:03.015Z,6.73
2018-12-17T14:40:33.032Z,5.83
2018-12-17T14:43:00.649Z,5.90
2018-12-17T14:45:28.185Z,6.90
2018-12-17T14:47:55.781Z,6.03
2018-12-17T14:50:24.329Z,5.53
2018-12-17T14:52:51.840Z,6.07
2018-12-17T14:55:19.343Z,6.40
2018-12-17T14:57:46.847Z,5.73
2018-12-17T15:00:14.439Z,5.60
2018-12-17T15:02:42.520Z,6.20
2018-12-17T15:05:10.016Z,6.07
2018-12-17T15:07:37.533Z,6.33
2018-12-17T15:10:05.886Z,5.33
2018-12-17T15:12:33.367Z,5.63
2018-12-17T15:15:00.875Z,6.57
2018-12-17T15:17:28.895Z,5.70
2018-12-17T15:19:56.448Z,6.07
2018-12-17T15:22:23.961Z,5.87
2018-12-17T15:24:51.535Z,6.73
2018-12-17T15:27:19.113Z,6.90
2018-12-17T15:29:46.611Z,6.60
2018-12-17T15:32:14.131Z,6.13
2018-12-17T15:34:41.636Z,5.83
2018-12-17T15:37:09.135Z,4.87
2018-12-17T15:39:36.620Z,5.40
2018-12-17T15:42:04.172Z,6.07
2018-12-17T15:44:31.708Z,5.37
2018-12-17T15:46:59.276Z,5.67
2018-12-17T15:49:26.799Z,5.77
2018-12-17T15:51:54.429Z,6.30
2018-12-17T15:54:22.067Z,5.43
2018-12-17T15:56:49.616Z,5.50
2018-12-17T15:59:17.311Z,5.77
2018-12-17T16:01:49.988Z,5.60
2018-12-17T16:04:14.321Z,5.50
2018-12-17T16:06:41.842Z,6.00
2018-12-17T16:09:09.351Z,5.80
2018-12-17T16:11:36.828Z,5.87
2018-12-17T16:14:04.348Z,6.27
2018-12-17T16:16:32.557Z,6.47
2018-12-17T16:19:00.036Z,5.87
2018-12-17T16:21:27.603Z,6.50
2018-12-17T16:23:55.432Z,6.50
2018-12-17T16:26:23.346Z,6.23
2018-12-17T16:28:51.053Z,6.07
2018-12-17T16:31:18.575Z,6.63
2018-12-17T16:33:46.135Z,6.70
2018-12-17T16:36:13.687Z,6.23
2018-12-17T16:38:41.303Z,6.63
2018-12-17T16:41:08.798Z,6.80
2018-12-17T16:43:36.461Z,6.67
2018-12-17T16:46:04.018Z,7.27
2018-12-17T16:48:32.511Z,6.27
2018-12-17T16:51:00.038Z,6.53
2018-12-17T16:53:27.716Z,6.80
2018-12-17T16:55:55.269Z,6.53
2018-12-17T16:58:22.817Z,6.90
2018-12-17T17:00:50.372Z,7.20
2018-12-17T17:03:17.919Z,6.87
2018-12-17T17:05:45.504Z,6.97
2018-12-17T17:08:13.098Z,8.00
2018-12-17T17:10:40.594Z,6.53
2018-12-17T17:13:08.111Z,7.10
2018-12-17T17:15:35.602Z,6.97
2018-12-17T17:18:03.095Z,7.20
2018-12-17T17:20:30.645Z,7.67
2018-12-17T17:22:58.183Z,7.37
2018-12-17T17:25:25.683Z,8.90
2018-12-17T17:27:53.193Z,8.93
2018-12-17T17:30:20.681Z,8.10
2018-12-17T17:32:48.922Z,7.13
2018-12-17T17:35:16.519Z,7.70
2018-12-17T17:37:44.139Z,7.80
2018-12-17T17:40:11.672Z,9.03
2018-12-17T17:42:39.286Z,8.57
2018-12-17T17:45:06.985Z,8.30
2018-12-17T17:47:34.494Z,7.93
2018-12-17T17:50:02.005Z,8.50
2018-12-17T17:52:29.500Z,9.00
2018-12-17T17:54:56.988Z,9.70
2018-12-17T17:57:24.524Z,8.27
2018-12-17T17:59:52.030Z,8.07
2018-12-17T18:02:19.519Z,10.07
2018-12-17T18:04:47.099Z,10.53
2018-12-17T18:07:14.595Z,10.40
2018-12-17T18:09:42.099Z,8.73
2018-12-17T18:12:09.607Z,9.10
2018-12-17T18:14:37.407Z,8.67
2018-12-17T18:17:04.971Z,9.23
2018-12-17T18:19:32.732Z,8.57
2018-12-17T18:22:00.220Z,9.53
2018-12-17T18:24:27.751Z,9.33
2018-12-17T18:26:55.268Z,9.43
2018-12-17T18:29:22.759Z,9.50
2018-12-17T18:31:50.262Z,9.03
2018-12-17T18:34:17.880Z,9.50
2018-12-17T18:36:45.456Z,8.40
2018-12-17T18:39:13.083Z,9.00
2018-12-17T18:41:40.752Z,8.63
2018-12-17T18:44:08.234Z,9.30
2018-12-17T18:46:35.726Z,8.80
2018-12-17T18:49:03.291Z,8.83
2018-12-17T18:51:30.821Z,8.70
2018-12-17T18:53:58.304Z,8.47
2018-12-17T18:56:25.874Z,9.00
2018-12-17T18:58:53.359Z,9.43
2018-12-17T19:01:20.857Z,9.87
2018-12-17T19:03:48.459Z,9.90
2018-12-17T19:06:16.007Z,10.23
2018-12-17T19:08:43.595Z,10.17
2018-12-17T19:11:11.535Z,9.37
2018-12-17T19:13:39.134Z,10.23
2018-12-17T19:16:06.629Z,10.60
2018-12-17T19:18:34.143Z,11.00
2018-12-17T19:21:01.623Z,10.57
2018-12-17T19:23:29.127Z,11.43
2018-12-17T19:25:56.705Z,11.90
2018-12-17T19:28:24.218Z,12.47
2018-12-17T19:30:51.727Z,32.27
2018-12-17T19:33:19.495Z,12.73
2018-12-17T19:35:47.059Z,12.63
2018-12-17T19:38:14.604Z,12.27
2018-12-17T19:40:42.126Z,12.03
2018-12-17T19:43:09.699Z,12.67
2018-12-17T19:45:37.183Z,12.63
2018-12-17T19:48:04.731Z,12.80
2018-12-17T19:50:32.220Z,19.20
2018-12-17T19:52:59.722Z,13.90
2018-12-17T19:55:27.336Z,12.20
2018-12-17T19:57:54.831Z,13.10
2018-12-17T20:00:22.324Z,12.50
2018-12-17T20:02:49.896Z,12.17
2018-12-17T20:05:17.428Z,12.80
2018-12-17T20:07:44.968Z,12.77
2018-12-17T20:10:14.543Z,12.63
2018-12-17T20:12:42.051Z,12.90
2018-12-17T20:15:09.609Z,12.70
2018-12-17T20:17:37.124Z,12.33
2018-12-17T20:20:05.764Z,13.53
2018-12-17T20:22:33.268Z,12.70
2018-12-17T20:25:00.790Z,14.13
2018-12-17T20:27:28.274Z,12.70
2018-12-17T20:29:55.755Z,13.77
2018-12-17T20:32:23.278Z,11.53
2018-12-17T20:34:50.885Z,13.80
2018-12-17T20:37:18.430Z,13.10
2018-12-17T20:39:45.968Z,12.77
2018-12-17T20:42:13.488Z,13.17
2018-12-17T20:44:40.996Z,12.97
2018-12-17T20:47:08.520Z,13.73
2018-12-17T20:49:36.032Z,14.07
2018-12-17T20:52:03.525Z,13.13
2018-12-17T20:54:31.031Z,13.30
2018-12-17T20:56:58.562Z,12.37
2018-12-17T20:59:26.064Z,12.57
2018-12-17T21:01:55.004Z,12.97
2018-12-17T21:04:23.169Z,13.40
2018-12-17T21:06:50.675Z,12.87
2018-12-17T21:09:18.207Z,12.87
2018-12-17T21:11:45.727Z,12.67
2018-12-17T21:14:13.224Z,12.27
2018-12-17T21:16:40.752Z,12.30
2018-12-17T21:19:08.342Z,13.43
2018-12-17T21:21:35.852Z,13.13
2018-12-17T21:24:03.453Z,13.93
2018-12-17T21:26:31.010Z,13.03
2018-12-17T21:28:58.599Z,13.43
2018-12-17T21:31:26.114Z,13.87
2018-12-17T21:33:53.598Z,12.93
2018-12-17T21:36:21.103Z,14.40
2018-12-17T21:38:48.679Z,13.50
2018-12-17T21:41:16.174Z,13.87
2018-12-17T21:43:43.687Z,15.07
2018-12-17T21:46:11.199Z,13.10
2018-12-17T21:48:38.764Z,13.07
2018-12-17T21:51:06.260Z,12.90
2018-12-17T21:53:33.804Z,13.13
2018-12-17T21:56:01.298Z,13.33
2018-12-17T21:58:28.929Z,13.70
2018-12-17T22:00:56.475Z,14.33
2018-12-17T22:03:23.990Z,13.37
2018-12-17T22:05:51.499Z,13.20
2018-12-17T22:08:19.018Z,12.97
2018-12-17T22:10:46.502Z,13.40
2018-12-17T22:13:13.997Z,12.37
2018-12-17T22:15:41.515Z,11.50
2018-12-17T22:18:09.003Z,12.50
2018-12-17T22:20:36.492Z,11.63
2018-12-17T22:23:04.076Z,11.93
2018-12-17T22:25:31.598Z,11.67
2018-12-17T22:27:59.091Z,11.43
2018-12-17T22:30:26.591Z,11.40
2018-12-17T22:32:54.141Z,9.83
2018-12-17T22:35:21.622Z,11.73
2018-12-17T22:37:49.136Z,11.93
2018-12-17T22:40:16.627Z,11.10
2018-12-17T22:42:44.148Z,11.20
2018-12-17T22:45:11.710Z,10.43
2018-12-17T22:47:39.197Z,9.80
2018-12-17T22:50:06.927Z,10.53
2018-12-17T22:52:34.567Z,11.20
2018-12-17T22:55:02.182Z,11.20
2018-12-17T22:57:29.670Z,10.97
2018-12-17T22:59:57.178Z,11.07
2018-12-17T23:02:24.672Z,11.03
2018-12-17T23:04:52.164Z,10.80
2018-12-17T23:07:19.678Z,11.40
2018-12-17T23:09:58.985Z,11.10
2018-12-17T23:12:38.179Z,11.10
2018-12-17T23:15:17.528Z,10.97
2018-12-17T23:17:44.636Z,12.20
2018-12-17T23:20:12.122Z,10.93
2018-12-17T23:22:39.780Z,10.77
2018-12-17T23:25:07.568Z,10.80
2018-12-17T23:27:35.111Z,12.03
2018-12-17T23:30:03.215Z,12.00
2018-12-17T23:32:33.764Z,11.30
2018-12-17T23:35:01.376Z,12.30
2018-12-17T23:37:28.866Z,12.97
2018-12-17T23:39:56.384Z,12.20
2018-12-17T23:42:24.027Z,12.50
2018-12-17T23:44:51.598Z,12.23
2018-12-17T23:47:19.117Z,13.73
2018-12-17T23:49:46.635Z,13.67
2018-12-17T23:52:14.183Z,13.50
2018-12-17T23:54:42.280Z,13.40
2018-12-17T23:57:09.818Z,11.97
2018-12-17T23:59:37.351Z,14.90
